Terminal Aerodrome Forecast
Issued by NWS

Home | Current Version | Previous Version | Text Only | Print | Product List | Glossary Off
Versions: 1 2 3 4 5 6 7 8 9 10 11 12 13 14 15 16 17 18 19 20 21 22 23 24 25 26 27 28 29 30 31 32 33 34 35 36 37

000
FTUS43 KLOT 272200 AAB
TAFMDW
TAF AMD
KMDW 272209Z 2722/2818 04007KT P6SM FEW030 FEW250
     FM280100 06003KT P6SM SCT250
     FM280600 20003KT P6SM SCT250
     FM281400 17008KT P6SM FEW150 BKN200=

USA.gov is the U.S. government's official web portal to all federal, state and local government web resources and services.